createdAt,value
2023-07-19T00:01:37.168Z,1.90
2023-07-19T00:04:05.170Z,1.75
2023-07-19T00:06:33.019Z,1.88
2023-07-19T00:09:00.914Z,1.80
2023-07-19T00:11:28.759Z,1.90
2023-07-19T00:13:56.643Z,1.70
2023-07-19T00:16:25.796Z,1.92
2023-07-19T00:18:59.854Z,1.80
2023-07-19T00:21:33.822Z,1.88
2023-07-19T00:24:01.707Z,1.67
2023-07-19T00:26:29.548Z,1.85
2023-07-19T00:28:59.510Z,1.50
2023-07-19T00:31:47.297Z,1.90
2023-07-19T00:34:15.237Z,2.53
2023-07-19T00:36:43.439Z,2.88
2023-07-19T00:39:13.091Z,2.53
2023-07-19T00:41:40.979Z,2.20
2023-07-19T00:44:08.873Z,2.22
2023-07-19T00:46:36.824Z,2.38
2023-07-19T00:49:07.191Z,2.63
2023-07-19T00:51:35.360Z,2.33
2023-07-19T00:54:08.095Z,2.38
2023-07-19T00:56:37.280Z,2.45
2023-07-19T00:59:05.926Z,2.40
2023-07-19T01:01:34.460Z,2.15
2023-07-19T01:04:02.335Z,1.90
2023-07-19T01:06:32.976Z,2.53
2023-07-19T01:09:01.579Z,1.98
2023-07-19T01:11:29.420Z,2.00
2023-07-19T01:13:58.081Z,2.30
2023-07-19T01:16:26.590Z,2.30
2023-07-19T01:18:56.566Z,1.98
2023-07-19T01:21:26.362Z,2.10
2023-07-19T01:23:59.235Z,2.08
2023-07-19T01:26:27.252Z,2.08
2023-07-19T01:28:58.465Z,2.20
2023-07-19T01:31:26.758Z,2.05
2023-07-19T01:33:56.021Z,2.28
2023-07-19T01:36:24.181Z,2.03
2023-07-19T01:38:52.287Z,2.40
2023-07-19T01:41:22.242Z,2.28
2023-07-19T01:43:50.480Z,2.00
2023-07-19T01:46:18.496Z,2.33
2023-07-19T01:48:46.399Z,2.40
2023-07-19T01:51:14.307Z,2.60
2023-07-19T01:53:42.155Z,2.50
2023-07-19T01:56:10.640Z,2.70
2023-07-19T01:58:39.996Z,2.75
2023-07-19T02:01:07.969Z,3.10
2023-07-19T02:03:35.873Z,2.88
2023-07-19T02:06:04.161Z,2.80
2023-07-19T02:08:32.091Z,3.00
2023-07-19T02:11:00.218Z,2.88
2023-07-19T02:13:28.071Z,3.15
2023-07-19T02:15:57.389Z,3.45
2023-07-19T02:18:25.338Z,3.50
2023-07-19T02:20:55.167Z,3.30
2023-07-19T02:23:24.691Z,3.30
2023-07-19T02:25:53.052Z,3.42
2023-07-19T02:28:22.204Z,3.20
2023-07-19T02:30:50.220Z,3.45
2023-07-19T02:33:19.558Z,2.97
2023-07-19T02:35:55.186Z,2.90
2023-07-19T02:38:23.964Z,3.10
2023-07-19T02:40:51.782Z,2.80
2023-07-19T02:43:19.873Z,3.07
2023-07-19T02:45:48.127Z,3.03
2023-07-19T02:48:16.399Z,2.70
2023-07-19T02:50:47.954Z,2.85
2023-07-19T02:53:17.087Z,3.03
2023-07-19T02:55:45.692Z,3.50
2023-07-19T02:58:13.704Z,2.83
2023-07-19T03:00:42.585Z,2.95
2023-07-19T03:03:12.206Z,3.03
2023-07-19T03:05:45.705Z,2.88
2023-07-19T03:08:15.150Z,2.70
2023-07-19T03:10:43.498Z,3.00
2023-07-19T03:13:11.323Z,2.88
2023-07-19T03:15:39.419Z,2.97
2023-07-19T03:18:08.309Z,3.38
2023-07-19T03:20:36.250Z,2.40
2023-07-19T03:23:04.418Z,2.58
2023-07-19T03:25:34.385Z,2.90
2023-07-19T03:28:02.504Z,2.90
2023-07-19T03:30:30.650Z,2.60
2023-07-19T03:33:00.736Z,2.83
2023-07-19T03:35:28.835Z,2.83
2023-07-19T03:37:57.731Z,2.70
2023-07-19T03:40:26.625Z,2.78
2023-07-19T03:42:56.081Z,2.88
2023-07-19T03:45:26.400Z,2.63
2023-07-19T03:47:54.643Z,2.92
2023-07-19T03:50:25.595Z,2.90
2023-07-19T03:52:54.353Z,3.17
2023-07-19T03:55:23.346Z,2.97
2023-07-19T03:57:51.811Z,3.47
2023-07-19T04:00:22.679Z,3.10
2023-07-19T04:02:51.449Z,3.40
2023-07-19T04:05:19.469Z,3.28
2023-07-19T04:07:47.681Z,3.17
2023-07-19T04:10:15.594Z,2.95
2023-07-19T04:12:43.457Z,2.85
2023-07-19T04:17:59.179Z,3.20
2023-07-19T04:20:29.676Z,3.20
2023-07-19T04:22:58.248Z,3.40
2023-07-19T04:25:26.335Z,3.45
2023-07-19T04:27:55.351Z,3.45
2023-07-19T04:30:23.264Z,3.80
2023-07-19T04:32:56.255Z,3.50
2023-07-19T04:35:28.166Z,3.40
2023-07-19T04:37:56.162Z,3.53
2023-07-19T04:40:24.250Z,3.90
2023-07-19T04:42:52.586Z,3.90
2023-07-19T04:45:20.609Z,4.20
2023-07-19T04:47:49.478Z,3.53
2023-07-19T04:50:17.707Z,4.07
2023-07-19T04:52:47.383Z,3.92
2023-07-19T04:55:15.516Z,3.70
2023-07-19T04:57:43.570Z,3.72
2023-07-19T05:00:13.344Z,4.47
2023-07-19T05:02:42.256Z,4.50
2023-07-19T05:05:10.928Z,4.75
2023-07-19T05:07:40.358Z,4.50
2023-07-19T05:10:10.617Z,4.80
2023-07-19T05:12:38.855Z,4.65
2023-07-19T05:15:07.595Z,4.78
2023-07-19T05:17:35.707Z,4.80
2023-07-19T05:20:06.484Z,4.57
2023-07-19T05:22:35.280Z,4.50
2023-07-19T05:25:04.512Z,4.90
2023-07-19T05:27:34.090Z,4.50
2023-07-19T05:30:02.125Z,4.55
2023-07-19T05:32:30.345Z,4.95
2023-07-19T05:34:58.635Z,4.80
2023-07-19T05:37:26.503Z,5.10
2023-07-19T05:39:54.552Z,4.50
2023-07-19T05:42:22.903Z,5.10
2023-07-19T05:44:52.177Z,4.75
2023-07-19T05:47:20.400Z,4.50
2023-07-19T05:49:48.137Z,4.88
2023-07-19T05:52:16.082Z,4.28
2023-07-19T05:54:43.942Z,4.60
2023-07-19T05:57:11.899Z,4.35
2023-07-19T05:59:39.794Z,4.18
2023-07-19T06:02:10.185Z,4.20
2023-07-19T06:04:38.454Z,4.32
2023-07-19T06:07:06.464Z,4.18
2023-07-19T06:09:34.383Z,4.10
2023-07-19T06:12:02.162Z,4.13
2023-07-19T06:14:30.260Z,4.43
2023-07-19T06:16:58.246Z,4.25
2023-07-19T06:19:27.465Z,4.22
2023-07-19T06:21:55.464Z,3.90
2023-07-19T06:24:24.721Z,3.70
2023-07-19T06:26:52.590Z,4.03
2023-07-19T06:29:20.512Z,4.40
2023-07-19T06:31:48.513Z,4.15
2023-07-19T06:34:16.535Z,3.95
2023-07-19T06:36:45.781Z,3.85
2023-07-19T06:39:13.676Z,4.38
2023-07-19T06:41:41.730Z,4.00
2023-07-19T06:44:09.595Z,4.15
2023-07-19T06:46:37.537Z,4.13
2023-07-19T06:49:05.413Z,4.28
2023-07-19T06:51:33.187Z,4.00
2023-07-19T06:54:13.657Z,4.10
2023-07-19T06:56:43.132Z,3.90
2023-07-19T06:59:11.026Z,4.05
2023-07-19T07:01:39.033Z,3.72
2023-07-19T07:04:11.118Z,3.65
2023-07-19T07:06:39.114Z,3.40
2023-07-19T07:09:08.469Z,3.60
2023-07-19T07:11:36.815Z,3.92
2023-07-19T07:14:04.616Z,3.67
2023-07-19T07:16:32.753Z,3.08
2023-07-19T07:19:00.684Z,3.30
2023-07-19T07:21:28.536Z,3.55
2023-07-19T07:23:56.443Z,3.40
2023-07-19T07:26:26.395Z,3.17
2023-07-19T07:28:54.340Z,3.17
2023-07-19T07:31:22.598Z,3.00
2023-07-19T07:33:50.801Z,3.25
2023-07-19T07:36:18.783Z,2.65
2023-07-19T07:38:49.391Z,2.80
2023-07-19T07:41:17.942Z,2.92
2023-07-19T07:43:47.237Z,2.70
2023-07-19T07:46:15.382Z,2.97
2023-07-19T07:48:43.223Z,3.05
2023-07-19T07:51:12.390Z,3.22
2023-07-19T07:53:40.221Z,2.70
2023-07-19T07:56:08.261Z,2.30
2023-07-19T07:58:36.126Z,2.50
2023-07-19T08:01:05.494Z,2.50
2023-07-19T08:03:33.372Z,2.30
2023-07-19T08:06:01.440Z,2.55
2023-07-19T08:08:29.602Z,2.75
2023-07-19T08:10:58.096Z,2.47
2023-07-19T08:13:26.066Z,2.60
2023-07-19T08:15:54.702Z,2.45
2023-07-19T08:18:23.950Z,2.28
2023-07-19T08:20:52.016Z,2.28
2023-07-19T08:23:20.544Z,2.30
2023-07-19T08:25:48.636Z,2.30
2023-07-19T08:28:16.504Z,2.50
2023-07-19T08:30:44.703Z,2.40
2023-07-19T08:33:12.515Z,2.20
2023-07-19T08:35:41.801Z,2.10
2023-07-19T08:38:10.231Z,2.10
2023-07-19T08:40:40.663Z,1.85
2023-07-19T08:43:09.568Z,2.10
2023-07-19T08:45:38.994Z,2.00
2023-07-19T08:48:07.956Z,2.05
2023-07-19T08:50:37.924Z,2.10
2023-07-19T08:53:07.627Z,1.95
2023-07-19T08:55:35.464Z,1.83
2023-07-19T08:58:03.304Z,2.00
2023-07-19T09:00:34.775Z,1.80
2023-07-19T09:03:02.819Z,2.20
2023-07-19T09:05:31.237Z,1.75
2023-07-19T09:08:01.839Z,2.08
2023-07-19T09:10:32.028Z,1.65
2023-07-19T09:13:03.660Z,1.63
2023-07-19T09:15:31.735Z,1.77
2023-07-19T09:18:04.816Z,1.73
2023-07-19T09:20:38.735Z,2.30
2023-07-19T09:23:07.831Z,1.70
2023-07-19T09:25:53.088Z,1.92
2023-07-19T09:28:23.007Z,1.88
2023-07-19T09:31:15.974Z,1.85
2023-07-19T09:33:55.781Z,1.60
2023-07-19T09:36:23.902Z,1.80
2023-07-19T09:38:54.386Z,2.20
2023-07-19T09:41:24.241Z,2.03
2023-07-19T09:43:56.082Z,1.98
2023-07-19T09:46:26.615Z,1.70
2023-07-19T09:48:54.661Z,2.28
2023-07-19T09:51:22.767Z,2.10
2023-07-19T09:53:52.446Z,2.00
2023-07-19T09:56:20.974Z,2.00
2023-07-19T09:58:51.130Z,2.22
2023-07-19T10:01:20.605Z,2.20
2023-07-19T10:03:48.548Z,1.60
2023-07-19T10:06:16.428Z,2.00
2023-07-19T10:08:44.429Z,2.00
2023-07-19T10:11:24.565Z,1.80
2023-07-19T10:16:36.774Z,2.38
2023-07-19T10:19:13.417Z,2.28
2023-07-19T10:22:02.906Z,2.55
2023-07-19T10:24:32.400Z,1.92
2023-07-19T10:27:06.388Z,2.03
2023-07-19T10:29:44.659Z,2.05
2023-07-19T10:32:13.207Z,2.03
2023-07-19T10:34:46.003Z,2.00
2023-07-19T10:37:14.661Z,1.83
2023-07-19T10:39:42.528Z,2.20
2023-07-19T10:42:10.768Z,2.13
2023-07-19T10:44:38.840Z,2.08
2023-07-19T10:47:08.835Z,1.58
2023-07-19T10:49:37.048Z,1.98
2023-07-19T10:52:05.897Z,1.80
2023-07-19T10:54:42.179Z,1.60
2023-07-19T10:57:23.671Z,1.98
2023-07-19T10:59:52.462Z,1.88
2023-07-19T11:02:22.806Z,2.25
2023-07-19T11:04:51.110Z,1.80
2023-07-19T11:07:19.624Z,1.83
2023-07-19T11:09:50.796Z,2.15
2023-07-19T11:12:18.846Z,1.98
2023-07-19T11:14:59.842Z,1.80
2023-07-19T11:17:31.397Z,1.60
2023-07-19T11:20:00.475Z,1.98
2023-07-19T11:22:29.155Z,2.00
2023-07-19T11:24:57.993Z,2.00
2023-07-19T11:27:35.922Z,1.65
2023-07-19T11:30:05.435Z,2.20
2023-07-19T11:32:35.201Z,2.20
2023-07-19T11:35:03.162Z,2.10
2023-07-19T11:37:33.949Z,2.15
2023-07-19T11:40:06.655Z,2.20
2023-07-19T11:42:46.283Z,2.00
2023-07-19T11:45:17.083Z,2.33
2023-07-19T11:47:50.211Z,2.22
2023-07-19T11:50:18.270Z,2.25
2023-07-19T11:52:48.906Z,2.30
2023-07-19T11:55:19.163Z,2.50
2023-07-19T11:57:49.430Z,2.60
2023-07-19T12:00:19.410Z,2.40
2023-07-19T12:02:51.169Z,2.42
2023-07-19T12:05:21.022Z,2.13
2023-07-19T12:07:51.638Z,2.50
2023-07-19T12:10:22.417Z,2.53
2023-07-19T12:12:51.016Z,2.75
2023-07-19T12:15:19.566Z,2.20
2023-07-19T12:17:48.895Z,2.47
2023-07-19T12:20:17.017Z,2.25
2023-07-19T12:22:47.765Z,2.30
2023-07-19T12:25:15.865Z,1.80
2023-07-19T12:27:43.886Z,2.25
2023-07-19T12:30:13.001Z,2.03
2023-07-19T12:32:41.175Z,2.50
2023-07-19T12:35:11.100Z,2.47
2023-07-19T12:37:38.954Z,2.20
2023-07-19T12:40:10.304Z,2.45
2023-07-19T12:42:38.562Z,2.38
2023-07-19T12:45:10.959Z,2.08
2023-07-19T12:47:39.449Z,2.47
2023-07-19T12:50:10.022Z,2.20
2023-07-19T12:52:51.299Z,2.40
2023-07-19T12:55:21.168Z,2.08
2023-07-19T12:57:49.521Z,2.22
2023-07-19T13:00:19.111Z,2.50
2023-07-19T13:02:47.816Z,2.40
2023-07-19T13:05:17.618Z,1.90
2023-07-19T13:07:45.448Z,2.28
2023-07-19T13:10:14.962Z,2.53
2023-07-19T13:12:43.399Z,2.05
2023-07-19T13:15:12.051Z,2.20
2023-07-19T13:17:42.697Z,1.98
2023-07-19T13:20:11.531Z,2.08
2023-07-19T13:22:41.442Z,1.90
2023-07-19T13:25:09.888Z,2.40
2023-07-19T13:27:37.809Z,2.20
2023-07-19T13:30:09.001Z,2.35
2023-07-19T13:32:37.385Z,2.40
2023-07-19T13:35:13.332Z,2.17
2023-07-19T13:40:14.825Z,2.40
2023-07-19T13:42:42.740Z,2.20
2023-07-19T13:45:11.579Z,2.10
2023-07-19T13:47:43.113Z,2.35
2023-07-19T13:50:11.851Z,2.17
2023-07-19T13:52:39.673Z,2.22
2023-07-19T13:55:10.041Z,1.95
2023-07-19T13:57:38.016Z,1.85
2023-07-19T14:00:08.239Z,1.67
2023-07-19T14:02:37.800Z,1.70
2023-07-19T14:05:07.588Z,1.48
2023-07-19T14:07:35.827Z,1.70
2023-07-19T14:10:09.106Z,1.80
2023-07-19T14:12:39.569Z,2.00
2023-07-19T14:15:10.051Z,1.75
2023-07-19T14:17:38.542Z,1.52
2023-07-19T14:20:08.422Z,2.00
2023-07-19T14:22:44.802Z,2.03
2023-07-19T14:25:14.820Z,2.20
2023-07-19T14:27:44.183Z,2.70
2023-07-19T14:30:12.641Z,2.30
2023-07-19T14:32:41.315Z,2.63
2023-07-19T14:35:10.411Z,2.55
2023-07-19T14:37:38.550Z,2.15
2023-07-19T14:40:08.495Z,2.70
2023-07-19T14:42:36.789Z,2.67
2023-07-19T14:45:07.728Z,2.70
2023-07-19T14:47:38.563Z,2.35
2023-07-19T14:50:07.729Z,2.28
2023-07-19T14:52:42.527Z,2.30
2023-07-19T14:55:11.189Z,1.90
2023-07-19T14:57:39.135Z,2.10
2023-07-19T15:00:13.393Z,1.90
2023-07-19T15:02:42.413Z,2.00
2023-07-19T15:05:11.192Z,1.95
2023-07-19T15:07:44.175Z,2.38
2023-07-19T15:10:12.504Z,2.20
2023-07-19T15:12:44.113Z,1.90
2023-07-19T15:15:13.925Z,2.55
2023-07-19T15:17:42.719Z,2.17
2023-07-19T15:20:11.776Z,2.40
2023-07-19T15:22:42.370Z,2.15
2023-07-19T15:25:13.761Z,2.53
2023-07-19T15:27:42.014Z,2.22
2023-07-19T15:30:11.686Z,1.90
2023-07-19T15:32:42.340Z,2.20
2023-07-19T15:35:11.402Z,2.22
2023-07-19T15:37:39.383Z,2.47
2023-07-19T15:40:08.857Z,2.03
2023-07-19T15:42:37.320Z,2.00
2023-07-19T15:45:06.510Z,1.95
2023-07-19T15:47:34.557Z,1.98
2023-07-19T15:50:05.410Z,2.05
2023-07-19T15:52:33.549Z,1.77
2023-07-19T15:55:01.689Z,1.60
2023-07-19T15:57:29.569Z,1.70
2023-07-19T15:59:57.456Z,1.70
2023-07-19T16:02:25.783Z,1.70
2023-07-19T16:04:53.659Z,1.80
2023-07-19T16:07:24.067Z,1.80
2023-07-19T16:09:52.081Z,1.80
2023-07-19T16:12:20.033Z,2.00
2023-07-19T16:14:47.940Z,1.60
2023-07-19T16:17:15.766Z,1.77
2023-07-19T16:19:43.602Z,1.75
2023-07-19T16:22:12.027Z,2.10
2023-07-19T16:24:41.302Z,2.38
2023-07-19T16:27:09.617Z,2.00
2023-07-19T16:29:37.657Z,1.88
2023-07-19T16:32:06.998Z,2.30
2023-07-19T16:34:34.948Z,2.10
2023-07-19T16:37:07.080Z,2.53
2023-07-19T16:39:35.337Z,2.17
2023-07-19T16:42:06.450Z,1.90
2023-07-19T16:44:34.589Z,2.78
2023-07-19T16:47:02.622Z,2.05
2023-07-19T16:49:30.774Z,2.40
2023-07-19T16:51:59.037Z,2.33
2023-07-19T16:54:27.029Z,1.83
2023-07-19T16:56:55.017Z,2.13
2023-07-19T16:59:24.298Z,1.88
2023-07-19T17:01:52.215Z,1.90
2023-07-19T17:04:20.270Z,2.00
2023-07-19T17:06:48.078Z,2.05
2023-07-19T17:09:16.428Z,2.55
2023-07-19T17:11:44.368Z,1.83
2023-07-19T17:14:12.263Z,1.85
2023-07-19T17:16:41.578Z,1.80
2023-07-19T17:19:15.776Z,1.65
2023-07-19T17:21:45.949Z,1.50
2023-07-19T17:24:14.284Z,1.60
2023-07-19T17:26:42.475Z,1.40
2023-07-19T17:29:10.299Z,1.60
2023-07-19T17:31:38.393Z,1.40
2023-07-19T17:34:07.536Z,1.65
2023-07-19T17:36:35.512Z,1.42
2023-07-19T17:39:03.814Z,1.58
2023-07-19T17:41:31.765Z,1.60
2023-07-19T17:43:59.834Z,1.52
2023-07-19T17:46:27.834Z,1.80
2023-07-19T17:48:55.757Z,1.50
2023-07-19T17:51:25.157Z,1.80
2023-07-19T17:53:53.211Z,1.60
2023-07-19T17:56:21.051Z,1.63
2023-07-19T17:58:51.325Z,1.40
2023-07-19T18:01:20.823Z,1.50
2023-07-19T18:03:53.237Z,1.30
2023-07-19T18:06:21.373Z,1.40
2023-07-19T18:08:50.513Z,1.23
2023-07-19T18:11:18.505Z,1.50
2023-07-19T18:13:47.389Z,1.35
2023-07-19T18:16:15.374Z,1.55
2023-07-19T18:18:43.256Z,1.30
2023-07-19T18:21:12.880Z,1.40
2023-07-19T18:23:41.061Z,1.30
2023-07-19T18:26:10.332Z,1.30
2023-07-19T18:28:38.204Z,1.65
2023-07-19T18:31:06.212Z,1.30
2023-07-19T18:33:34.224Z,1.60
2023-07-19T18:36:02.182Z,1.40
2023-07-19T18:38:30.394Z,1.27
2023-07-19T18:40:58.623Z,1.35
2023-07-19T18:43:27.984Z,1.30
2023-07-19T18:45:55.967Z,1.27
2023-07-19T18:48:24.133Z,1.33
2023-07-19T18:50:52.099Z,1.55
2023-07-19T18:53:22.760Z,1.63
2023-07-19T18:55:50.842Z,1.40
2023-07-19T18:58:19.038Z,1.60
2023-07-19T19:00:48.953Z,1.70
2023-07-19T19:03:17.296Z,1.58
2023-07-19T19:05:47.281Z,1.60
2023-07-19T19:08:17.062Z,1.40
2023-07-19T19:10:45.460Z,1.60
2023-07-19T19:13:13.343Z,1.60
2023-07-19T19:15:41.274Z,2.00
2023-07-19T19:18:10.589Z,1.70
2023-07-19T19:20:39.001Z,1.48
2023-07-19T19:23:09.783Z,1.50
2023-07-19T19:25:37.740Z,1.80
2023-07-19T19:28:06.594Z,1.85
2023-07-19T19:30:34.820Z,1.60
2023-07-19T19:33:03.119Z,1.40
2023-07-19T19:35:32.497Z,1.50
2023-07-19T19:38:00.417Z,1.52
2023-07-19T19:40:28.808Z,1.55
2023-07-19T19:42:57.177Z,1.40
2023-07-19T19:45:25.159Z,1.88
2023-07-19T19:47:53.547Z,1.70
2023-07-19T19:50:21.699Z,1.90
2023-07-19T19:53:03.716Z,2.03
2023-07-19T19:58:07.619Z,2.10
2023-07-19T20:00:36.012Z,1.95
2023-07-19T20:08:07.709Z,1.85
2023-07-19T20:10:35.681Z,1.92
2023-07-19T20:13:03.721Z,2.10
2023-07-19T20:15:47.137Z,2.13
2023-07-19T20:20:47.225Z,2.38
2023-07-19T20:23:16.961Z,2.20
2023-07-19T20:26:00.940Z,2.10
2023-07-19T20:28:34.855Z,2.13
2023-07-19T20:31:06.171Z,2.03
2023-07-19T20:33:35.401Z,1.90
2023-07-19T20:36:05.644Z,2.00
2023-07-19T20:43:37.768Z,1.70
2023-07-19T20:48:40.393Z,1.50
2023-07-19T20:51:14.122Z,1.70
2023-07-19T20:53:43.697Z,1.50
2023-07-19T20:56:11.691Z,1.90
2023-07-19T20:58:39.749Z,1.80
2023-07-19T21:01:07.738Z,2.22
2023-07-19T21:03:38.069Z,1.55
2023-07-19T21:06:06.298Z,1.90
2023-07-19T21:08:34.248Z,2.08
2023-07-19T21:11:03.955Z,1.70
2023-07-19T21:13:31.784Z,1.85
2023-07-19T21:15:59.719Z,1.80
2023-07-19T21:18:27.695Z,1.80
2023-07-19T21:20:55.770Z,1.95
2023-07-19T21:23:23.798Z,1.67
2023-07-19T21:25:51.663Z,1.90
2023-07-19T21:28:20.869Z,1.75
2023-07-19T21:30:48.988Z,1.90
2023-07-19T21:33:17.020Z,1.70
2023-07-19T21:35:44.887Z,1.98
2023-07-19T21:38:12.828Z,1.70
2023-07-19T21:40:40.753Z,1.83
2023-07-19T21:43:08.879Z,2.03
2023-07-19T21:45:38.237Z,2.00
2023-07-19T21:48:06.529Z,1.65
2023-07-19T21:50:34.657Z,1.85
2023-07-19T21:53:02.576Z,1.67
2023-07-19T21:55:30.560Z,1.52
2023-07-19T21:57:58.365Z,1.83
2023-07-19T22:00:41.501Z,1.67
2023-07-19T22:03:13.002Z,1.60
2023-07-19T22:05:42.060Z,1.60
2023-07-19T22:08:10.351Z,1.52
2023-07-19T22:10:38.512Z,1.52
2023-07-19T22:13:09.220Z,1.70
2023-07-19T22:15:37.179Z,1.70
2023-07-19T22:18:25.984Z,1.67
2023-07-19T22:21:00.964Z,2.28
2023-07-19T22:25:56.864Z,1.70
2023-07-19T22:28:24.764Z,2.83
2023-07-19T22:30:55.962Z,2.55
2023-07-19T22:33:25.389Z,2.70
2023-07-19T22:35:53.227Z,2.55
2023-07-19T22:38:21.143Z,2.88
2023-07-19T22:40:48.971Z,2.55
2023-07-19T22:43:16.792Z,2.75
2023-07-19T22:45:44.709Z,3.03
2023-07-19T22:48:12.716Z,2.80
2023-07-19T22:50:42.037Z,3.20
2023-07-19T22:53:10.029Z,3.35
2023-07-19T22:55:37.934Z,3.08
2023-07-19T22:58:05.928Z,3.08
2023-07-19T23:00:34.046Z,3.10
2023-07-19T23:03:02.118Z,3.50
2023-07-19T23:05:30.042Z,3.20
2023-07-19T23:07:59.183Z,3.47
2023-07-19T23:10:27.187Z,3.55
2023-07-19T23:12:55.137Z,3.42
2023-07-19T23:15:23.328Z,4.00
2023-07-19T23:17:53.804Z,3.75
2023-07-19T23:20:21.979Z,3.78
2023-07-19T23:22:50.217Z,4.15
2023-07-19T23:25:19.677Z,3.72
2023-07-19T23:27:47.659Z,4.10
2023-07-19T23:30:15.991Z,3.80
2023-07-19T23:32:43.890Z,3.95
2023-07-19T23:35:12.887Z,4.40
2023-07-19T23:37:40.723Z,4.50
2023-07-19T23:40:10.375Z,4.70
2023-07-19T23:42:39.584Z,4.95
2023-07-19T23:45:09.055Z,4.78
2023-07-19T23:47:37.261Z,5.10
2023-07-19T23:50:06.693Z,5.10
2023-07-19T23:52:35.256Z,5.13
2023-07-19T23:55:05.075Z,4.80
2023-07-19T23:57:33.430Z,5.32
